sensor_id;sensor_type;location;lat;lon;timestamp;temperature;humidity
21302;DHT22;10810;48.270;9.996;2022-11-11T07:02:15;8.50;99.90
21302;DHT22;10810;48.270;9.996;2022-11-11T07:04:42;8.50;99.90
21302;DHT22;10810;48.270;9.996;2022-11-11T07:07:12;8.40;99.90
21302;DHT22;10810;48.270;9.996;2022-11-11T07:09:46;8.10;99.90
21302;DHT22;10810;48.270;9.996;2022-11-11T07:12:39;8.40;99.90
21302;DHT22;10810;48.270;9.996;2022-11-11T07:15:15;8.40;99.90
21302;DHT22;10810;48.270;9.996;2022-11-11T07:17:44;8.40;99.90
21302;DHT22;10810;48.270;9.996;2022-11-11T07:20:11;8.40;99.90
21302;DHT22;10810;48.270;9.996;2022-11-11T07:22:39;8.40;99.90
21302;DHT22;10810;48.270;9.996;2022-11-11T07:25:11;8.40;99.90
21302;DHT22;10810;48.270;9.996;2022-11-11T07:27:39;8.40;99.90
21302;DHT22;10810;48.270;9.996;2022-11-11T07:30:08;8.40;99.90
21302;DHT22;10810;48.270;9.996;2022-11-11T07:32:36;8.40;99.90
21302;DHT22;10810;48.270;9.996;2022-11-11T07:35:06;8.40;99.90
21302;DHT22;10810;48.270;9.996;2022-11-11T07:37:41;8.40;99.90
21302;DHT22;10810;48.270;9.996;2022-11-11T07:40:12;7.90;99.90
21302;DHT22;10810;48.270;9.996;2022-11-11T07:42:48;8.40;99.90
21302;DHT22;10810;48.270;9.996;2022-11-11T07:45:30;8.40;99.90
21302;DHT22;10810;48.270;9.996;2022-11-11T08:18:59;8.30;99.90
21302;DHT22;10810;48.270;9.996;2022-11-11T10:37:38;9.60;99.90
21302;DHT22;10810;48.270;9.996;2022-11-11T18:34:55;10.50;99.90
21302;DHT22;10810;48.270;9.996;2022-11-11T18:37:43;10.50;99.90
21302;DHT22;10810;48.270;9.996;2022-11-11T18:40:22;10.50;99.90
21302;DHT22;10810;48.270;9.996;2022-11-11T20:25:08;10.40;99.90
21302;DHT22;10810;48.270;9.996;2022-11-11T20:27:48;10.40;99.90
21302;DHT22;10810;48.270;9.996;2022-11-11T20:30:19;10.40;99.90
21302;DHT22;10810;48.270;9.996;2022-11-11T20:32:46;10.40;99.90
21302;DHT22;10810;48.270;9.996;2022-11-11T20:35:22;10.40;99.90
21302;DHT22;10810;48.270;9.996;2022-11-11T20:37:57;10.40;99.90
21302;DHT22;10810;48.270;9.996;2022-11-11T20:40:29;10.40;99.90
21302;DHT22;10810;48.270;9.996;2022-11-11T20:43:05;10.40;99.90
21302;DHT22;10810;48.270;9.996;2022-11-11T20:46:34;10.40;99.90
21302;DHT22;10810;48.270;9.996;2022-11-11T20:48:53;10.40;99.90
21302;DHT22;10810;48.270;9.996;2022-11-11T20:51:26;10.40;99.90
21302;DHT22;10810;48.270;9.996;2022-11-11T20:54:15;10.40;99.90
21302;DHT22;10810;48.270;9.996;2022-11-11T20:56:47;10.40;99.90
21302;DHT22;10810;48.270;9.996;2022-11-11T20:59:14;10.40;99.90
21302;DHT22;10810;48.270;9.996;2022-11-11T21:01:43;10.40;99.90
21302;DHT22;10810;48.270;9.996;2022-11-11T21:04:16;10.40;99.90
21302;DHT22;10810;48.270;9.996;2022-11-11T21:06:58;10.40;99.90
21302;DHT22;10810;48.270;9.996;2022-11-11T21:09:28;10.40;99.90
21302;DHT22;10810;48.270;9.996;2022-11-11T21:12:36;10.40;99.90
21302;DHT22;10810;48.270;9.996;2022-11-11T21:14:54;10.40;99.90
21302;DHT22;10810;48.270;9.996;2022-11-11T21:17:23;10.40;99.90
21302;DHT22;10810;48.270;9.996;2022-11-11T21:20:21;10.30;99.90
21302;DHT22;10810;48.270;9.996;2022-11-11T21:22:51;10.40;99.90
21302;DHT22;10810;48.270;9.996;2022-11-11T21:25:18;10.40;99.90
21302;DHT22;10810;48.270;9.996;2022-11-11T21:27:47;10.30;99.90
21302;DHT22;10810;48.270;9.996;2022-11-11T21:30:14;10.40;99.90
21302;DHT22;10810;48.270;9.996;2022-11-11T21:32:50;10.30;99.90
21302;DHT22;10810;48.270;9.996;2022-11-11T21:35:35;10.30;99.90
21302;DHT22;10810;48.270;9.996;2022-11-11T21:38:09;10.40;99.90
21302;DHT22;10810;48.270;9.996;2022-11-11T21:40:44;10.40;99.90
21302;DHT22;10810;48.270;9.996;2022-11-11T21:43:29;10.30;99.90
21302;DHT22;10810;48.270;9.996;2022-11-11T21:49:08;10.40;99.90
21302;DHT22;10810;48.270;9.996;2022-11-11T21:51:51;10.30;99.90
21302;DHT22;10810;48.270;9.996;2022-11-11T21:55:02;10.30;99.90
21302;DHT22;10810;48.270;9.996;2022-11-11T21:57:19;10.30;99.90
21302;DHT22;10810;48.270;9.996;2022-11-11T22:00:01;10.30;99.90
21302;DHT22;10810;48.270;9.996;2022-11-11T22:02:55;10.30;99.90
21302;DHT22;10810;48.270;9.996;2022-11-11T22:05:22;10.30;99.90
21302;DHT22;10810;48.270;9.996;2022-11-11T22:07:51;10.30;99.90
21302;DHT22;10810;48.270;9.996;2022-11-11T22:10:18;10.30;99.90
21302;DHT22;10810;48.270;9.996;2022-11-11T22:12:46;10.30;99.90
21302;DHT22;10810;48.270;9.996;2022-11-11T22:15:33;10.30;99.90
21302;DHT22;10810;48.270;9.996;2022-11-11T22:18:32;10.30;99.90
21302;DHT22;10810;48.270;9.996;2022-11-11T22:21:29;10.30;99.90
21302;DHT22;10810;48.270;9.996;2022-11-11T22:24:13;10.30;99.90
21302;DHT22;10810;48.270;9.996;2022-11-11T22:26:48;10.30;99.90
21302;DHT22;10810;48.270;9.996;2022-11-11T22:29:16;10.30;99.90
21302;DHT22;10810;48.270;9.996;2022-11-11T22:31:44;10.20;99.90
21302;DHT22;10810;48.270;9.996;2022-11-11T22:34:12;10.30;99.90
21302;DHT22;10810;48.270;9.996;2022-11-11T22:36:40;10.20;99.90
21302;DHT22;10810;48.270;9.996;2022-11-11T22:39:08;10.20;99.90
21302;DHT22;10810;48.270;9.996;2022-11-11T22:41:41;10.20;99.90
21302;DHT22;10810;48.270;9.996;2022-11-11T22:44:16;10.20;99.90
21302;DHT22;10810;48.270;9.996;2022-11-11T22:46:56;10.30;99.90
21302;DHT22;10810;48.270;9.996;2022-11-11T22:49:28;10.20;99.90
21302;DHT22;10810;48.270;9.996;2022-11-11T22:52:15;10.20;99.90
21302;DHT22;10810;48.270;9.996;2022-11-11T22:54:57;9.50;99.90
21302;DHT22;10810;48.270;9.996;2022-11-11T22:57:41;10.20;99.90
21302;DHT22;10810;48.270;9.996;2022-11-11T23:00:50;10.20;99.90
21302;DHT22;10810;48.270;9.996;2022-11-11T23:03:22;9.90;99.90
21302;DHT22;10810;48.270;9.996;2022-11-11T23:05:59;10.20;99.90
21302;DHT22;10810;48.270;9.996;2022-11-11T23:08:41;10.20;99.90
21302;DHT22;10810;48.270;9.996;2022-11-11T23:11:35;10.20;99.90
21302;DHT22;10810;48.270;9.996;2022-11-11T23:14:09;10.20;99.90
21302;DHT22;10810;48.270;9.996;2022-11-11T23:16:42;10.20;99.90
21302;DHT22;10810;48.270;9.996;2022-11-11T23:19:25;10.20;99.90
21302;DHT22;10810;48.270;9.996;2022-11-11T23:21:55;10.20;99.90
21302;DHT22;10810;48.270;9.996;2022-11-11T23:24:40;10.20;99.90
21302;DHT22;10810;48.270;9.996;2022-11-11T23:27:18;10.20;99.90
21302;DHT22;10810;48.270;9.996;2022-11-11T23:33:23;10.20;99.90
21302;DHT22;10810;48.270;9.996;2022-11-11T23:35:57;10.10;99.90
21302;DHT22;10810;48.270;9.996;2022-11-11T23:38:33;10.20;99.90
21302;DHT22;10810;48.270;9.996;2022-11-11T23:41:18;10.10;99.90
21302;DHT22;10810;48.270;9.996;2022-11-11T23:44:23;9.70;99.90
21302;DHT22;10810;48.270;9.996;2022-11-11T23:47:18;10.10;99.90
21302;DHT22;10810;48.270;9.996;2022-11-11T23:49:47;10.10;99.90
21302;DHT22;10810;48.270;9.996;2022-11-11T23:52:40;10.20;99.90
21302;DHT22;10810;48.270;9.996;2022-11-11T23:55:22;9.50;99.90
21302;DHT22;10810;48.270;9.996;2022-11-11T23:58:06;10.10;99.90
